sensor_id;sensor_type;location;lat;lon;timestamp;P1;durP1;ratioP1;P2;durP2;ratioP2
70535;SDS011;58089;48.752;11.338;2022-09-09T00:01:44;5.83;;;2.13;;
70535;SDS011;58089;48.752;11.338;2022-09-09T00:04:12;8.27;;;2.67;;
70535;SDS011;58089;48.752;11.338;2022-09-09T00:06:43;17.38;;;2.92;;
70535;SDS011;58089;48.752;11.338;2022-09-09T00:09:15;12.00;;;2.40;;
70535;SDS011;58089;48.752;11.338;2022-09-09T00:11:51;11.20;;;2.83;;
70535;SDS011;58089;48.752;11.338;2022-09-09T00:16:42;11.38;;;2.42;;
70535;SDS011;58089;48.752;11.338;2022-09-09T00:19:14;6.45;;;2.50;;
70535;SDS011;58089;48.752;11.338;2022-09-09T00:24:32;5.72;;;1.70;;
70535;SDS011;58089;48.752;11.338;2022-09-09T00:27:46;5.28;;;1.90;;
70535;SDS011;58089;48.752;11.338;2022-09-09T00:29:47;6.82;;;1.60;;
70535;SDS011;58089;48.752;11.338;2022-09-09T00:32:18;9.18;;;1.60;;
70535;SDS011;58089;48.752;11.338;2022-09-09T00:34:52;6.57;;;1.40;;
70535;SDS011;58089;48.752;11.338;2022-09-09T00:37:19;5.82;;;1.10;;
70535;SDS011;58089;48.752;11.338;2022-09-09T00:39:45;7.15;;;1.40;;
70535;SDS011;58089;48.752;11.338;2022-09-09T00:52:51;3.47;;;0.70;;
70535;SDS011;58089;48.752;11.338;2022-09-09T00:58:07;3.90;;;1.08;;
70535;SDS011;58089;48.752;11.338;2022-09-09T01:11:37;8.70;;;1.00;;
70535;SDS011;58089;48.752;11.338;2022-09-09T01:14:01;3.87;;;1.10;;
70535;SDS011;58089;48.752;11.338;2022-09-09T01:16:28;5.47;;;1.10;;
70535;SDS011;58089;48.752;11.338;2022-09-09T01:18:54;5.55;;;1.00;;
70535;SDS011;58089;48.752;11.338;2022-09-09T01:26:50;4.50;;;0.90;;
70535;SDS011;58089;48.752;11.338;2022-09-09T01:29:17;5.25;;;0.90;;
70535;SDS011;58089;48.752;11.338;2022-09-09T01:31:53;5.10;;;1.00;;
70535;SDS011;58089;48.752;11.338;2022-09-09T01:34:18;3.40;;;0.80;;
70535;SDS011;58089;48.752;11.338;2022-09-09T01:36:45;3.93;;;1.00;;
70535;SDS011;58089;48.752;11.338;2022-09-09T01:39:12;3.50;;;0.85;;
70535;SDS011;58089;48.752;11.338;2022-09-09T01:41:37;3.83;;;0.70;;
70535;SDS011;58089;48.752;11.338;2022-09-09T01:44:02;3.78;;;0.80;;
70535;SDS011;58089;48.752;11.338;2022-09-09T01:46:28;3.10;;;0.70;;
70535;SDS011;58089;48.752;11.338;2022-09-09T01:48:55;3.50;;;0.80;;
70535;SDS011;58089;48.752;11.338;2022-09-09T01:51:21;3.63;;;0.80;;
70535;SDS011;58089;48.752;11.338;2022-09-09T01:53:46;3.80;;;0.60;;
70535;SDS011;58089;48.752;11.338;2022-09-09T02:01:16;3.20;;;0.80;;
70535;SDS011;58089;48.752;11.338;2022-09-09T02:03:44;7.80;;;1.15;;
70535;SDS011;58089;48.752;11.338;2022-09-09T02:06:20;3.30;;;0.70;;
70535;SDS011;58089;48.752;11.338;2022-09-09T02:08:49;3.28;;;0.77;;
70535;SDS011;58089;48.752;11.338;2022-09-09T02:11:16;4.53;;;0.80;;
70535;SDS011;58089;48.752;11.338;2022-09-09T02:13:42;3.40;;;0.80;;
70535;SDS011;58089;48.752;11.338;2022-09-09T02:16:10;3.35;;;0.65;;
70535;SDS011;58089;48.752;11.338;2022-09-09T02:21:20;3.70;;;0.70;;
70535;SDS011;58089;48.752;11.338;2022-09-09T02:23:47;5.68;;;0.93;;
70535;SDS011;58089;48.752;11.338;2022-09-09T02:26:13;3.97;;;1.10;;
70535;SDS011;58089;48.752;11.338;2022-09-09T02:28:44;3.20;;;0.80;;
70535;SDS011;58089;48.752;11.338;2022-09-09T02:31:10;3.97;;;0.70;;
70535;SDS011;58089;48.752;11.338;2022-09-09T02:33:37;4.67;;;0.83;;
70535;SDS011;58089;48.752;11.338;2022-09-09T02:36:03;3.38;;;0.80;;
70535;SDS011;58089;48.752;11.338;2022-09-09T02:38:32;8.15;;;0.90;;
70535;SDS011;58089;48.752;11.338;2022-09-09T02:40:59;3.70;;;0.80;;
70535;SDS011;58089;48.752;11.338;2022-09-09T02:43:25;3.70;;;0.70;;
70535;SDS011;58089;48.752;11.338;2022-09-09T02:48:25;4.78;;;0.90;;
70535;SDS011;58089;48.752;11.338;2022-09-09T02:50:57;6.32;;;1.00;;
70535;SDS011;58089;48.752;11.338;2022-09-09T02:53:24;5.28;;;0.88;;
70535;SDS011;58089;48.752;11.338;2022-09-09T02:56:05;3.87;;;0.90;;
70535;SDS011;58089;48.752;11.338;2022-09-09T02:58:34;3.30;;;0.90;;
70535;SDS011;58089;48.752;11.338;2022-09-09T03:00:59;4.18;;;0.80;;
70535;SDS011;58089;48.752;11.338;2022-09-09T03:03:27;3.97;;;0.77;;
70535;SDS011;58089;48.752;11.338;2022-09-09T03:05:52;3.73;;;0.50;;
70535;SDS011;58089;48.752;11.338;2022-09-09T03:08:18;3.80;;;0.70;;
70535;SDS011;58089;48.752;11.338;2022-09-09T03:10:43;3.10;;;0.70;;
70535;SDS011;58089;48.752;11.338;2022-09-09T03:13:08;3.30;;;0.70;;
70535;SDS011;58089;48.752;11.338;2022-09-09T03:15:33;3.85;;;0.60;;
70535;SDS011;58089;48.752;11.338;2022-09-09T03:17:59;4.73;;;0.70;;
70535;SDS011;58089;48.752;11.338;2022-09-09T03:20:25;3.00;;;0.50;;
70535;SDS011;58089;48.752;11.338;2022-09-09T03:22:51;4.45;;;0.77;;
70535;SDS011;58089;48.752;11.338;2022-09-09T03:25:17;3.35;;;0.68;;
70535;SDS011;58089;48.752;11.338;2022-09-09T03:27:42;3.13;;;0.63;;
70535;SDS011;58089;48.752;11.338;2022-09-09T03:30:08;4.32;;;0.77;;
70535;SDS011;58089;48.752;11.338;2022-09-09T03:32:33;3.23;;;0.50;;
70535;SDS011;58089;48.752;11.338;2022-09-09T03:34:58;3.08;;;0.60;;
70535;SDS011;58089;48.752;11.338;2022-09-09T03:37:23;3.00;;;0.43;;
70535;SDS011;58089;48.752;11.338;2022-09-09T03:39:48;2.90;;;0.60;;
70535;SDS011;58089;48.752;11.338;2022-09-09T03:42:14;3.97;;;0.77;;
70535;SDS011;58089;48.752;11.338;2022-09-09T03:44:43;4.43;;;0.73;;
70535;SDS011;58089;48.752;11.338;2022-09-09T03:47:11;4.18;;;0.50;;
70535;SDS011;58089;48.752;11.338;2022-09-09T03:49:36;4.15;;;0.60;;
70535;SDS011;58089;48.752;11.338;2022-09-09T03:52:01;3.10;;;0.60;;
70535;SDS011;58089;48.752;11.338;2022-09-09T03:54:26;5.57;;;0.50;;
70535;SDS011;58089;48.752;11.338;2022-09-09T03:56:52;3.93;;;0.53;;
70535;SDS011;58089;48.752;11.338;2022-09-09T03:59:17;3.80;;;0.57;;
70535;SDS011;58089;48.752;11.338;2022-09-09T04:01:42;3.97;;;0.70;;
70535;SDS011;58089;48.752;11.338;2022-09-09T04:04:07;4.97;;;0.87;;
70535;SDS011;58089;48.752;11.338;2022-09-09T04:06:36;2.78;;;0.57;;
70535;SDS011;58089;48.752;11.338;2022-09-09T04:09:01;3.20;;;0.70;;
70535;SDS011;58089;48.752;11.338;2022-09-09T04:11:28;3.10;;;0.60;;
70535;SDS011;58089;48.752;11.338;2022-09-09T04:13:53;2.83;;;0.60;;
70535;SDS011;58089;48.752;11.338;2022-09-09T04:16:18;5.13;;;0.80;;
70535;SDS011;58089;48.752;11.338;2022-09-09T04:18:45;3.90;;;0.60;;
70535;SDS011;58089;48.752;11.338;2022-09-09T04:21:10;5.03;;;0.80;;
70535;SDS011;58089;48.752;11.338;2022-09-09T04:23:37;3.45;;;0.50;;
70535;SDS011;58089;48.752;11.338;2022-09-09T04:26:02;3.00;;;0.60;;
70535;SDS011;58089;48.752;11.338;2022-09-09T04:28:28;3.10;;;0.70;;
70535;SDS011;58089;48.752;11.338;2022-09-09T04:30:54;2.90;;;0.50;;
70535;SDS011;58089;48.752;11.338;2022-09-09T04:33:19;3.20;;;0.50;;
70535;SDS011;58089;48.752;11.338;2022-09-09T04:35:45;3.05;;;0.60;;
70535;SDS011;58089;48.752;11.338;2022-09-09T04:38:12;3.83;;;0.70;;
70535;SDS011;58089;48.752;11.338;2022-09-09T04:40:37;3.23;;;0.63;;
70535;SDS011;58089;48.752;11.338;2022-09-09T04:43:07;4.88;;;0.98;;
70535;SDS011;58089;48.752;11.338;2022-09-09T04:45:33;3.20;;;0.50;;
70535;SDS011;58089;48.752;11.338;2022-09-09T04:47:58;3.13;;;0.50;;
70535;SDS011;58089;48.752;11.338;2022-09-09T04:50:24;5.85;;;0.70;;
70535;SDS011;58089;48.752;11.338;2022-09-09T04:52:49;3.77;;;0.77;;
70535;SDS011;58089;48.752;11.338;2022-09-09T04:55:15;3.80;;;0.60;;
70535;SDS011;58089;48.752;11.338;2022-09-09T04:57:40;4.17;;;0.60;;
70535;SDS011;58089;48.752;11.338;2022-09-09T05:00:06;3.17;;;0.60;;
70535;SDS011;58089;48.752;11.338;2022-09-09T05:02:32;4.07;;;0.70;;
70535;SDS011;58089;48.752;11.338;2022-09-09T05:04:58;3.20;;;0.40;;
70535;SDS011;58089;48.752;11.338;2022-09-09T05:07:23;3.03;;;0.50;;
70535;SDS011;58089;48.752;11.338;2022-09-09T05:09:48;2.90;;;0.50;;
70535;SDS011;58089;48.752;11.338;2022-09-09T05:12:14;3.17;;;0.60;;
70535;SDS011;58089;48.752;11.338;2022-09-09T05:14:41;3.30;;;0.60;;
70535;SDS011;58089;48.752;11.338;2022-09-09T05:17:06;6.72;;;0.68;;
70535;SDS011;58089;48.752;11.338;2022-09-09T05:19:31;3.72;;;0.63;;
70535;SDS011;58089;48.752;11.338;2022-09-09T05:21:56;4.77;;;0.87;;
70535;SDS011;58089;48.752;11.338;2022-09-09T05:24:22;4.33;;;0.60;;
70535;SDS011;58089;48.752;11.338;2022-09-09T05:26:48;2.90;;;0.60;;
70535;SDS011;58089;48.752;11.338;2022-09-09T05:29:13;3.10;;;0.70;;
70535;SDS011;58089;48.752;11.338;2022-09-09T05:31:39;4.90;;;0.97;;
70535;SDS011;58089;48.752;11.338;2022-09-09T05:34:04;3.93;;;0.90;;
70535;SDS011;58089;48.752;11.338;2022-09-09T05:36:29;4.00;;;0.70;;
70535;SDS011;58089;48.752;11.338;2022-09-09T05:38:54;6.10;;;1.37;;
70535;SDS011;58089;48.752;11.338;2022-09-09T05:41:20;3.77;;;1.10;;
70535;SDS011;58089;48.752;11.338;2022-09-09T05:43:45;6.20;;;1.60;;
70535;SDS011;58089;48.752;11.338;2022-09-09T05:46:12;3.60;;;1.10;;
70535;SDS011;58089;48.752;11.338;2022-09-09T05:48:38;3.70;;;0.93;;
70535;SDS011;58089;48.752;11.338;2022-09-09T05:51:04;3.72;;;1.00;;
70535;SDS011;58089;48.752;11.338;2022-09-09T05:53:29;4.90;;;1.20;;
70535;SDS011;58089;48.752;11.338;2022-09-09T05:56:03;3.72;;;1.20;;
70535;SDS011;58089;48.752;11.338;2022-09-09T05:58:29;4.57;;;1.17;;
70535;SDS011;58089;48.752;11.338;2022-09-09T06:00:59;5.03;;;1.60;;
70535;SDS011;58089;48.752;11.338;2022-09-09T06:03:25;4.95;;;1.50;;
70535;SDS011;58089;48.752;11.338;2022-09-09T06:05:56;7.75;;;1.70;;
70535;SDS011;58089;48.752;11.338;2022-09-09T06:08:22;5.57;;;1.47;;
70535;SDS011;58089;48.752;11.338;2022-09-09T06:10:47;5.05;;;1.50;;
70535;SDS011;58089;48.752;11.338;2022-09-09T06:13:12;4.20;;;1.60;;
70535;SDS011;58089;48.752;11.338;2022-09-09T06:15:38;5.82;;;2.40;;
70535;SDS011;58089;48.752;11.338;2022-09-09T06:18:03;5.90;;;1.57;;
70535;SDS011;58089;48.752;11.338;2022-09-09T06:20:28;7.30;;;2.93;;
70535;SDS011;58089;48.752;11.338;2022-09-09T06:22:55;6.50;;;2.17;;
70535;SDS011;58089;48.752;11.338;2022-09-09T06:25:20;6.50;;;2.33;;
70535;SDS011;58089;48.752;11.338;2022-09-09T06:27:48;5.33;;;2.53;;
70535;SDS011;58089;48.752;11.338;2022-09-09T06:30:14;7.47;;;2.78;;
70535;SDS011;58089;48.752;11.338;2022-09-09T06:32:39;8.63;;;3.10;;
70535;SDS011;58089;48.752;11.338;2022-09-09T06:35:04;5.47;;;2.70;;
70535;SDS011;58089;48.752;11.338;2022-09-09T06:37:29;10.00;;;2.80;;
70535;SDS011;58089;48.752;11.338;2022-09-09T06:39:55;5.93;;;2.23;;
70535;SDS011;58089;48.752;11.338;2022-09-09T06:42:20;5.90;;;2.50;;
70535;SDS011;58089;48.752;11.338;2022-09-09T06:44:45;6.80;;;2.67;;
70535;SDS011;58089;48.752;11.338;2022-09-09T06:47:10;6.13;;;2.50;;
70535;SDS011;58089;48.752;11.338;2022-09-09T06:49:36;5.53;;;1.97;;
70535;SDS011;58089;48.752;11.338;2022-09-09T06:52:01;5.90;;;2.47;;
70535;SDS011;58089;48.752;11.338;2022-09-09T06:54:26;6.20;;;2.30;;
70535;SDS011;58089;48.752;11.338;2022-09-09T06:56:51;4.73;;;2.00;;
70535;SDS011;58089;48.752;11.338;2022-09-09T06:59:16;6.47;;;2.00;;
70535;SDS011;58089;48.752;11.338;2022-09-09T07:01:42;6.97;;;2.50;;
70535;SDS011;58089;48.752;11.338;2022-09-09T07:04:11;5.70;;;2.05;;
70535;SDS011;58089;48.752;11.338;2022-09-09T07:06:38;5.55;;;2.30;;
70535;SDS011;58089;48.752;11.338;2022-09-09T07:09:04;5.75;;;2.10;;
70535;SDS011;58089;48.752;11.338;2022-09-09T07:11:34;5.83;;;2.23;;
70535;SDS011;58089;48.752;11.338;2022-09-09T07:14:00;5.35;;;2.20;;
70535;SDS011;58089;48.752;11.338;2022-09-09T07:16:26;5.57;;;2.33;;
70535;SDS011;58089;48.752;11.338;2022-09-09T07:18:52;5.00;;;2.10;;
70535;SDS011;58089;48.752;11.338;2022-09-09T07:21:20;4.03;;;1.70;;
70535;SDS011;58089;48.752;11.338;2022-09-09T07:23:46;6.75;;;2.47;;
70535;SDS011;58089;48.752;11.338;2022-09-09T07:26:12;5.17;;;2.00;;
70535;SDS011;58089;48.752;11.338;2022-09-09T07:28:38;6.30;;;2.30;;
70535;SDS011;58089;48.752;11.338;2022-09-09T07:31:04;6.63;;;2.40;;
70535;SDS011;58089;48.752;11.338;2022-09-09T07:33:30;6.85;;;2.50;;
70535;SDS011;58089;48.752;11.338;2022-09-09T07:36:02;6.13;;;2.78;;
70535;SDS011;58089;48.752;11.338;2022-09-09T07:38:28;8.00;;;2.80;;
70535;SDS011;58089;48.752;11.338;2022-09-09T07:40:54;6.18;;;2.65;;
70535;SDS011;58089;48.752;11.338;2022-09-09T07:43:26;6.38;;;2.22;;
70535;SDS011;58089;48.752;11.338;2022-09-09T07:45:57;5.35;;;2.40;;
70535;SDS011;58089;48.752;11.338;2022-09-09T07:48:22;7.87;;;2.30;;
70535;SDS011;58089;48.752;11.338;2022-09-09T07:50:47;6.53;;;2.65;;
70535;SDS011;58089;48.752;11.338;2022-09-09T07:53:12;5.63;;;2.60;;
70535;SDS011;58089;48.752;11.338;2022-09-09T07:55:38;5.95;;;2.50;;
70535;SDS011;58089;48.752;11.338;2022-09-09T07:58:03;12.63;;;3.20;;
70535;SDS011;58089;48.752;11.338;2022-09-09T08:00:28;12.43;;;3.45;;
70535;SDS011;58089;48.752;11.338;2022-09-09T08:02:53;7.60;;;2.20;;
70535;SDS011;58089;48.752;11.338;2022-09-09T08:05:19;6.60;;;2.37;;
70535;SDS011;58089;48.752;11.338;2022-09-09T08:07:44;7.63;;;2.23;;
70535;SDS011;58089;48.752;11.338;2022-09-09T08:10:09;5.67;;;2.57;;
70535;SDS011;58089;48.752;11.338;2022-09-09T08:12:34;5.80;;;2.42;;
70535;SDS011;58089;48.752;11.338;2022-09-09T08:14:59;8.13;;;2.53;;
70535;SDS011;58089;48.752;11.338;2022-09-09T08:17:24;7.20;;;2.70;;
70535;SDS011;58089;48.752;11.338;2022-09-09T08:19:50;7.17;;;2.50;;
70535;SDS011;58089;48.752;11.338;2022-09-09T08:22:15;6.40;;;2.20;;
70535;SDS011;58089;48.752;11.338;2022-09-09T08:24:40;6.47;;;2.40;;
70535;SDS011;58089;48.752;11.338;2022-09-09T08:27:06;5.35;;;2.15;;
70535;SDS011;58089;48.752;11.338;2022-09-09T08:29:31;7.20;;;1.93;;
70535;SDS011;58089;48.752;11.338;2022-09-09T08:31:57;5.87;;;2.03;;
70535;SDS011;58089;48.752;11.338;2022-09-09T08:34:23;5.95;;;1.90;;
70535;SDS011;58089;48.752;11.338;2022-09-09T08:36:48;7.67;;;1.73;;
70535;SDS011;58089;48.752;11.338;2022-09-09T08:39:15;5.10;;;1.67;;
70535;SDS011;58089;48.752;11.338;2022-09-09T08:44:10;5.23;;;1.20;;
70535;SDS011;58089;48.752;11.338;2022-09-09T08:51:56;4.53;;;1.48;;
70535;SDS011;58089;48.752;11.338;2022-09-09T08:54:22;4.65;;;1.33;;
70535;SDS011;58089;48.752;11.338;2022-09-09T08:56:48;3.93;;;1.17;;
70535;SDS011;58089;48.752;11.338;2022-09-09T08:59:14;6.67;;;1.33;;
70535;SDS011;58089;48.752;11.338;2022-09-09T09:11:57;5.13;;;0.98;;
70535;SDS011;58089;48.752;11.338;2022-09-09T09:14:29;5.32;;;1.35;;
70535;SDS011;58089;48.752;11.338;2022-09-09T09:17:05;5.43;;;1.30;;
70535;SDS011;58089;48.752;11.338;2022-09-09T09:19:32;4.65;;;1.05;;
70535;SDS011;58089;48.752;11.338;2022-09-09T09:24:25;3.50;;;0.83;;
70535;SDS011;58089;48.752;11.338;2022-09-09T09:26:52;4.15;;;0.93;;
70535;SDS011;58089;48.752;11.338;2022-09-09T09:29:19;5.27;;;1.00;;
70535;SDS011;58089;48.752;11.338;2022-09-09T09:31:52;3.83;;;1.05;;
70535;SDS011;58089;48.752;11.338;2022-09-09T09:34:19;3.97;;;0.80;;
70535;SDS011;58089;48.752;11.338;2022-09-09T09:36:45;4.80;;;0.88;;
70535;SDS011;58089;48.752;11.338;2022-09-09T09:39:22;4.43;;;1.00;;
70535;SDS011;58089;48.752;11.338;2022-09-09T09:41:47;3.75;;;0.88;;
70535;SDS011;58089;48.752;11.338;2022-09-09T09:44:26;4.23;;;0.80;;
70535;SDS011;58089;48.752;11.338;2022-09-09T09:46:52;3.73;;;0.70;;
70535;SDS011;58089;48.752;11.338;2022-09-09T09:49:18;5.25;;;1.00;;
70535;SDS011;58089;48.752;11.338;2022-09-09T09:51:43;4.43;;;0.93;;
70535;SDS011;58089;48.752;11.338;2022-09-09T09:56:41;4.57;;;0.90;;
70535;SDS011;58089;48.752;11.338;2022-09-09T09:59:18;5.05;;;0.70;;
70535;SDS011;58089;48.752;11.338;2022-09-09T10:01:44;5.00;;;0.70;;
70535;SDS011;58089;48.752;11.338;2022-09-09T10:06:37;3.58;;;0.60;;
70535;SDS011;58089;48.752;11.338;2022-09-09T10:09:18;6.00;;;0.88;;
70535;SDS011;58089;48.752;11.338;2022-09-09T10:11:55;4.72;;;0.88;;
70535;SDS011;58089;48.752;11.338;2022-09-09T10:14:26;3.55;;;0.80;;
70535;SDS011;58089;48.752;11.338;2022-09-09T10:19:34;3.83;;;0.90;;
70535;SDS011;58089;48.752;11.338;2022-09-09T10:27:48;5.78;;;1.00;;
70535;SDS011;58089;48.752;11.338;2022-09-09T10:30:30;4.90;;;0.60;;
70535;SDS011;58089;48.752;11.338;2022-09-09T10:33:22;4.13;;;0.80;;
70535;SDS011;58089;48.752;11.338;2022-09-09T10:36:03;4.68;;;1.02;;
70535;SDS011;58089;48.752;11.338;2022-09-09T10:38:37;5.15;;;0.90;;
70535;SDS011;58089;48.752;11.338;2022-09-09T10:41:10;4.47;;;1.00;;
70535;SDS011;58089;48.752;11.338;2022-09-09T10:57:05;5.13;;;0.90;;
70535;SDS011;58089;48.752;11.338;2022-09-09T10:59:34;5.70;;;1.67;;
70535;SDS011;58089;48.752;11.338;2022-09-09T11:02:02;5.20;;;1.10;;
70535;SDS011;58089;48.752;11.338;2022-09-09T11:04:31;4.53;;;1.10;;
70535;SDS011;58089;48.752;11.338;2022-09-09T11:06:59;4.57;;;1.30;;
70535;SDS011;58089;48.752;11.338;2022-09-09T11:09:30;5.73;;;1.30;;
70535;SDS011;58089;48.752;11.338;2022-09-09T11:11:58;6.07;;;1.25;;
70535;SDS011;58089;48.752;11.338;2022-09-09T11:14:29;6.22;;;1.40;;
70535;SDS011;58089;48.752;11.338;2022-09-09T11:21:49;8.60;;;1.15;;
70535;SDS011;58089;48.752;11.338;2022-09-09T11:24:18;5.30;;;0.83;;
70535;SDS011;58089;48.752;11.338;2022-09-09T11:26:47;4.55;;;1.10;;
70535;SDS011;58089;48.752;11.338;2022-09-09T11:31:56;5.57;;;1.45;;
70535;SDS011;58089;48.752;11.338;2022-09-09T11:37:17;4.40;;;1.10;;
70535;SDS011;58089;48.752;11.338;2022-09-09T11:44:38;6.53;;;1.20;;
70535;SDS011;58089;48.752;11.338;2022-09-09T11:47:15;4.23;;;1.13;;
70535;SDS011;58089;48.752;11.338;2022-09-09T11:49:41;3.87;;;1.00;;
70535;SDS011;58089;48.752;11.338;2022-09-09T11:52:11;4.85;;;1.17;;
70535;SDS011;58089;48.752;11.338;2022-09-09T11:54:44;4.90;;;1.13;;
70535;SDS011;58089;48.752;11.338;2022-09-09T11:57:23;4.28;;;1.05;;
70535;SDS011;58089;48.752;11.338;2022-09-09T11:59:52;3.77;;;0.93;;
70535;SDS011;58089;48.752;11.338;2022-09-09T12:12:49;5.37;;;1.13;;
70535;SDS011;58089;48.752;11.338;2022-09-09T12:28:08;5.72;;;1.17;;
70535;SDS011;58089;48.752;11.338;2022-09-09T12:30:36;5.33;;;1.20;;
70535;SDS011;58089;48.752;11.338;2022-09-09T12:33:10;6.45;;;1.42;;
70535;SDS011;58089;48.752;11.338;2022-09-09T12:35:37;5.15;;;1.00;;
70535;SDS011;58089;48.752;11.338;2022-09-09T12:38:03;6.57;;;1.20;;
70535;SDS011;58089;48.752;11.338;2022-09-09T12:40:32;5.57;;;1.00;;
70535;SDS011;58089;48.752;11.338;2022-09-09T12:43:00;4.50;;;1.20;;
70535;SDS011;58089;48.752;11.338;2022-09-09T12:45:27;6.45;;;1.35;;
70535;SDS011;58089;48.752;11.338;2022-09-09T12:50:20;5.23;;;1.10;;
70535;SDS011;58089;48.752;11.338;2022-09-09T12:52:46;6.32;;;1.30;;
70535;SDS011;58089;48.752;11.338;2022-09-09T12:55:16;4.68;;;1.40;;
70535;SDS011;58089;48.752;11.338;2022-09-09T12:57:41;5.07;;;1.40;;
70535;SDS011;58089;48.752;11.338;2022-09-09T13:03:01;4.50;;;1.30;;
70535;SDS011;58089;48.752;11.338;2022-09-09T13:08:00;6.10;;;1.10;;
70535;SDS011;58089;48.752;11.338;2022-09-09T13:10:27;5.32;;;1.45;;
70535;SDS011;58089;48.752;11.338;2022-09-09T13:12:54;6.30;;;1.20;;
70535;SDS011;58089;48.752;11.338;2022-09-09T13:15:20;4.20;;;1.10;;
70535;SDS011;58089;48.752;11.338;2022-09-09T13:17:49;4.70;;;1.03;;
70535;SDS011;58089;48.752;11.338;2022-09-09T13:20:18;5.25;;;1.20;;
70535;SDS011;58089;48.752;11.338;2022-09-09T13:22:44;5.97;;;1.10;;
70535;SDS011;58089;48.752;11.338;2022-09-09T13:27:36;6.13;;;1.10;;
70535;SDS011;58089;48.752;11.338;2022-09-09T13:38:28;3.95;;;0.70;;
70535;SDS011;58089;48.752;11.338;2022-09-09T13:41:00;5.30;;;0.90;;
70535;SDS011;58089;48.752;11.338;2022-09-09T13:44:02;5.30;;;0.80;;
70535;SDS011;58089;48.752;11.338;2022-09-09T13:48:56;4.03;;;0.82;;
70535;SDS011;58089;48.752;11.338;2022-09-09T13:51:30;4.55;;;0.90;;
70535;SDS011;58089;48.752;11.338;2022-09-09T13:53:57;6.70;;;0.80;;
70535;SDS011;58089;48.752;11.338;2022-09-09T13:56:22;5.33;;;0.90;;
70535;SDS011;58089;48.752;11.338;2022-09-09T13:58:47;4.67;;;1.00;;
70535;SDS011;58089;48.752;11.338;2022-09-09T14:01:12;5.05;;;0.80;;
70535;SDS011;58089;48.752;11.338;2022-09-09T14:03:38;5.73;;;1.00;;
70535;SDS011;58089;48.752;11.338;2022-09-09T14:06:03;4.78;;;1.10;;
70535;SDS011;58089;48.752;11.338;2022-09-09T14:08:28;5.00;;;1.02;;
70535;SDS011;58089;48.752;11.338;2022-09-09T14:11:01;5.35;;;0.85;;
70535;SDS011;58089;48.752;11.338;2022-09-09T14:13:26;4.97;;;0.87;;
70535;SDS011;58089;48.752;11.338;2022-09-09T14:15:52;5.63;;;0.80;;
70535;SDS011;58089;48.752;11.338;2022-09-09T14:18:17;7.70;;;1.10;;
70535;SDS011;58089;48.752;11.338;2022-09-09T14:20:43;6.13;;;0.90;;
70535;SDS011;58089;48.752;11.338;2022-09-09T14:23:10;5.70;;;0.97;;
70535;SDS011;58089;48.752;11.338;2022-09-09T14:25:35;3.92;;;0.82;;
70535;SDS011;58089;48.752;11.338;2022-09-09T14:28:01;4.43;;;0.85;;
70535;SDS011;58089;48.752;11.338;2022-09-09T14:30:26;5.50;;;0.97;;
70535;SDS011;58089;48.752;11.338;2022-09-09T14:32:52;8.67;;;1.10;;
70535;SDS011;58089;48.752;11.338;2022-09-09T14:35:17;6.55;;;0.93;;
70535;SDS011;58089;48.752;11.338;2022-09-09T14:37:43;9.60;;;0.98;;
70535;SDS011;58089;48.752;11.338;2022-09-09T14:40:09;5.25;;;0.98;;
70535;SDS011;58089;48.752;11.338;2022-09-09T14:42:36;5.50;;;0.80;;
70535;SDS011;58089;48.752;11.338;2022-09-09T14:45:01;6.13;;;0.82;;
70535;SDS011;58089;48.752;11.338;2022-09-09T14:47:26;5.80;;;0.90;;
70535;SDS011;58089;48.752;11.338;2022-09-09T14:49:52;4.37;;;0.87;;
70535;SDS011;58089;48.752;11.338;2022-09-09T14:52:18;5.97;;;0.85;;
70535;SDS011;58089;48.752;11.338;2022-09-09T14:54:43;6.50;;;1.20;;
70535;SDS011;58089;48.752;11.338;2022-09-09T14:57:08;4.80;;;0.82;;
70535;SDS011;58089;48.752;11.338;2022-09-09T14:59:33;6.20;;;0.85;;
70535;SDS011;58089;48.752;11.338;2022-09-09T15:01:59;5.73;;;0.70;;
70535;SDS011;58089;48.752;11.338;2022-09-09T15:04:28;7.47;;;1.10;;
70535;SDS011;58089;48.752;11.338;2022-09-09T15:06:54;6.53;;;0.83;;
70535;SDS011;58089;48.752;11.338;2022-09-09T15:09:19;4.93;;;0.80;;
70535;SDS011;58089;48.752;11.338;2022-09-09T15:11:44;6.13;;;0.88;;
70535;SDS011;58089;48.752;11.338;2022-09-09T15:14:10;6.18;;;0.90;;
70535;SDS011;58089;48.752;11.338;2022-09-09T15:16:37;6.97;;;0.87;;
70535;SDS011;58089;48.752;11.338;2022-09-09T15:19:03;7.63;;;1.00;;
70535;SDS011;58089;48.752;11.338;2022-09-09T15:21:29;5.70;;;1.10;;
70535;SDS011;58089;48.752;11.338;2022-09-09T15:23:55;3.85;;;0.68;;
70535;SDS011;58089;48.752;11.338;2022-09-09T15:26:21;5.93;;;1.10;;
70535;SDS011;58089;48.752;11.338;2022-09-09T15:28:46;3.83;;;0.80;;
70535;SDS011;58089;48.752;11.338;2022-09-09T15:31:17;4.23;;;0.70;;
70535;SDS011;58089;48.752;11.338;2022-09-09T15:36:14;6.18;;;0.77;;
70535;SDS011;58089;48.752;11.338;2022-09-09T15:38:39;4.78;;;0.65;;
70535;SDS011;58089;48.752;11.338;2022-09-09T15:41:05;4.33;;;0.70;;
70535;SDS011;58089;48.752;11.338;2022-09-09T15:43:30;4.17;;;0.60;;
70535;SDS011;58089;48.752;11.338;2022-09-09T15:45:57;3.95;;;0.70;;
70535;SDS011;58089;48.752;11.338;2022-09-09T15:48:30;3.40;;;0.43;;
70535;SDS011;58089;48.752;11.338;2022-09-09T15:51:06;3.75;;;0.50;;
70535;SDS011;58089;48.752;11.338;2022-09-09T15:53:31;3.50;;;0.53;;
70535;SDS011;58089;48.752;11.338;2022-09-09T15:55:59;4.20;;;0.40;;
70535;SDS011;58089;48.752;11.338;2022-09-09T15:58:24;3.63;;;0.50;;
70535;SDS011;58089;48.752;11.338;2022-09-09T16:00:49;4.53;;;0.70;;
70535;SDS011;58089;48.752;11.338;2022-09-09T16:03:15;3.63;;;0.50;;
70535;SDS011;58089;48.752;11.338;2022-09-09T16:05:40;3.25;;;0.50;;
70535;SDS011;58089;48.752;11.338;2022-09-09T16:08:05;4.63;;;0.50;;
70535;SDS011;58089;48.752;11.338;2022-09-09T16:10:31;3.00;;;0.50;;
70535;SDS011;58089;48.752;11.338;2022-09-09T16:12:56;3.33;;;0.40;;
70535;SDS011;58089;48.752;11.338;2022-09-09T16:15:21;4.28;;;0.40;;
70535;SDS011;58089;48.752;11.338;2022-09-09T16:17:48;4.18;;;0.60;;
70535;SDS011;58089;48.752;11.338;2022-09-09T16:20:13;4.23;;;0.50;;
70535;SDS011;58089;48.752;11.338;2022-09-09T16:22:39;2.67;;;0.40;;
70535;SDS011;58089;48.752;11.338;2022-09-09T16:25:05;4.55;;;0.50;;
70535;SDS011;58089;48.752;11.338;2022-09-09T16:27:30;4.50;;;0.40;;
70535;SDS011;58089;48.752;11.338;2022-09-09T16:29:55;4.33;;;0.57;;
70535;SDS011;58089;48.752;11.338;2022-09-09T16:32:21;4.53;;;0.50;;
70535;SDS011;58089;48.752;11.338;2022-09-09T16:34:47;3.63;;;0.45;;
70535;SDS011;58089;48.752;11.338;2022-09-09T16:37:12;3.13;;;0.50;;
70535;SDS011;58089;48.752;11.338;2022-09-09T16:39:37;2.70;;;0.30;;
70535;SDS011;58089;48.752;11.338;2022-09-09T16:42:02;2.67;;;0.40;;
70535;SDS011;58089;48.752;11.338;2022-09-09T16:44:29;3.60;;;0.50;;
70535;SDS011;58089;48.752;11.338;2022-09-09T16:46:55;3.42;;;0.57;;
70535;SDS011;58089;48.752;11.338;2022-09-09T16:49:20;3.40;;;0.63;;
70535;SDS011;58089;48.752;11.338;2022-09-09T16:51:47;3.97;;;0.73;;
70535;SDS011;58089;48.752;11.338;2022-09-09T16:54:12;4.53;;;0.50;;
70535;SDS011;58089;48.752;11.338;2022-09-09T16:56:40;3.55;;;0.70;;
70535;SDS011;58089;48.752;11.338;2022-09-09T16:59:10;4.83;;;0.60;;
70535;SDS011;58089;48.752;11.338;2022-09-09T17:01:36;4.72;;;0.50;;
70535;SDS011;58089;48.752;11.338;2022-09-09T17:04:03;3.75;;;0.65;;
70535;SDS011;58089;48.752;11.338;2022-09-09T17:06:29;3.78;;;0.70;;
70535;SDS011;58089;48.752;11.338;2022-09-09T17:08:55;3.60;;;0.68;;